Terminal Aerodrome Forecast
Issued by NWS

Current Version | Previous Version | Text Only | Print | Product List | Glossary Off
Versions: 1 2 3 4 5 6 7 8 9 10 11 12 13 14 15 16 17 18 19 20 21

046
FTUS41 KPBZ 042322
TAFHLG
TAF
KHLG 042322Z 0500/0524 10009KT P6SM OVC100
     FM050200 12006KT 3SM -RASN OVC030
     FM050400 15005KT P6SM -RA OVC010
     FM050700 24006KT P6SM VCSH OVC008
     FM051100 28007KT P6SM BKN015
     FM051700 31007KT P6SM BKN025=

USA.gov is the U.S. government's official web portal to all federal, state and local government web resources and services.